Time;durP1;ratioP1;P1;durP2;ratioP2;P2;SDS_P1;SDS_P2;PMS_P1;PMS_P2;Temp;Humidity;BMP_temperature;BMP_pressure;BME280_temperature;BME280_humidity;BME280_pressure;Samples;Min_cycle;Max_cycle;Signal;HPM_P1;HPM_P2
2023/05/27 00:01:00;;;;;;;7.68;6.32;;;;;;;;;;5019905;28;20045;-69
2023/05/27 00:03:26;;;;;;;8.75;6.57;;;;;;;;;;5020110;28;20057;-70
2023/05/27 00:05:51;;;;;;;11.60;6.85;;;;;;;;;;5018646;28;20037;-70
2023/05/27 00:08:17;;;;;;;12.88;6.60;;;;;;;;;;5019546;28;20053;-69
2023/05/27 00:10:42;;;;;;;13.50;7.22;;;;;;;;;;5019877;28;20118;-69
2023/05/27 00:13:07;;;;;;;11.05;6.32;;;;;;;;;;5020381;28;20044;-70
2023/05/27 00:15:34;;;;;;;11.77;7.00;;;;;;;;;;5019027;28;20144;-69
2023/05/27 00:18:01;;;;;;;12.73;6.95;;;;;;;;;;5034196;28;20495;-69
2023/05/27 00:20:29;;;;;;;9.40;6.53;;;;;;;;;;5020054;28;20055;-67
2023/05/27 00:22:56;;;;;;;11.80;7.07;;;;;;;;;;5019953;28;20050;-67
2023/05/27 00:25:22;;;;;;;11.52;6.75;;;;;;;;;;5019848;28;20045;-67
2023/05/27 00:27:48;;;;;;;10.90;7.30;;;;;;;;;;5019205;28;20135;-67
2023/05/27 00:30:15;;;;;;;17.48;6.38;;;;;;;;;;5034275;28;20037;-67
2023/05/27 00:32:41;;;;;;;11.05;6.88;;;;;;;;;;5018307;28;20749;-67
2023/05/27 00:35:07;;;;;;;18.95;8.38;;;;;;;;;;5034905;28;20126;-67
2023/05/27 00:37:33;;;;;;;9.40;6.63;;;;;;;;;;5018652;28;20045;-67
2023/05/27 00:39:58;;;;;;;11.82;6.85;;;;;;;;;;5019120;28;20079;-68
2023/05/27 00:42:24;;;;;;;13.77;7.20;;;;;;;;;;5018134;28;20041;-67
2023/05/27 00:44:49;;;;;;;18.45;7.00;;;;;;;;;;5019627;28;20049;-67
2023/05/27 00:47:16;;;;;;;12.73;7.35;;;;;;;;;;5034688;28;20145;-67
2023/05/27 00:49:42;;;;;;;10.18;6.53;;;;;;;;;;5019238;28;20506;-67
2023/05/27 00:52:08;;;;;;;11.70;6.90;;;;;;;;;;5034160;28;20056;-67
2023/05/27 00:54:33;;;;;;;11.50;7.00;;;;;;;;;;5011465;28;20049;-67
2023/05/27 00:57:01;;;;;;;12.05;5.88;;;;;;;;;;5019390;28;20053;-67
2023/05/27 00:59:26;;;;;;;10.15;7.03;;;;;;;;;;5016770;28;20099;-67
2023/05/27 01:01:52;;;;;;;11.57;6.78;;;;;;;;;;5034601;28;20063;-67
2023/05/27 01:04:18;;;;;;;13.10;6.60;;;;;;;;;;5018490;28;20049;-67
2023/05/27 01:07:07;;;;;;;13.90;6.85;;;;;;;;;;5014730;28;20064;-67
2023/05/27 01:09:43;;;;;;;8.60;6.20;;;;;;;;;;5017336;28;20147;-67
2023/05/27 01:12:47;;;;;;;12.52;7.22;;;;;;;;;;5015302;28;20123;-68
2023/05/27 01:15:13;;;;;;;12.82;7.43;;;;;;;;;;5014066;28;20065;-67
2023/05/27 01:17:42;;;;;;;11.38;7.20;;;;;;;;;;5015101;28;20046;-67
2023/05/27 01:20:10;;;;;;;12.75;6.85;;;;;;;;;;5019117;28;20081;-67
2023/05/27 01:22:36;;;;;;;14.82;7.40;;;;;;;;;;5017822;28;20103;-67
2023/05/27 01:25:02;;;;;;;9.95;7.13;;;;;;;;;;5019385;28;20406;-67
2023/05/27 01:27:28;;;;;;;12.88;7.07;;;;;;;;;;5016948;28;20069;-68
2023/05/27 01:29:56;;;;;;;10.82;6.80;;;;;;;;;;5036430;28;20045;-69
2023/05/27 01:32:44;;;;;;;13.13;7.10;;;;;;;;;;5020559;28;20494;-68
2023/05/27 01:35:27;;;;;;;11.15;5.82;;;;;;;;;;5038824;28;20065;-68
2023/05/27 01:37:54;;;;;;;11.65;6.55;;;;;;;;;;5024153;28;20044;-68
2023/05/27 01:40:21;;;;;;;9.15;6.72;;;;;;;;;;5036391;28;20045;-68
2023/05/27 01:42:47;;;;;;;10.50;6.55;;;;;;;;;;5038279;28;20046;-68
2023/05/27 01:45:14;;;;;;;17.15;6.70;;;;;;;;;;5033376;28;20045;-68
2023/05/27 01:47:40;;;;;;;13.30;6.60;;;;;;;;;;5022037;28;20049;-68
2023/05/27 01:50:08;;;;;;;8.18;6.13;;;;;;;;;;5021023;28;20198;-68
2023/05/27 01:52:33;;;;;;;15.90;6.75;;;;;;;;;;5037954;28;20037;-68
2023/05/27 01:55:00;;;;;;;11.73;6.75;;;;;;;;;;5037809;28;20045;-68
2023/05/27 01:57:25;;;;;;;11.73;7.22;;;;;;;;;;5037689;28;20064;-68
2023/05/27 01:59:51;;;;;;;11.35;6.18;;;;;;;;;;5038162;28;20148;-68
2023/05/27 02:02:17;;;;;;;14.20;6.18;;;;;;;;;;5027959;28;20050;-68
2023/05/27 02:04:42;;;;;;;10.95;5.80;;;;;;;;;;5037853;28;20052;-67
2023/05/27 02:07:08;;;;;;;16.77;8.32;;;;;;;;;;5037417;28;20041;-68
2023/05/27 02:09:33;;;;;;;15.85;6.22;;;;;;;;;;5022815;28;20103;-68
2023/05/27 02:11:58;;;;;;;14.73;6.63;;;;;;;;;;5014268;28;20093;-69
2023/05/27 02:14:24;;;;;;;10.57;6.10;;;;;;;;;;5036887;28;20064;-68
2023/05/27 02:16:50;;;;;;;12.27;6.10;;;;;;;;;;5037480;28;20047;-68
2023/05/27 02:19:16;;;;;;;10.13;5.80;;;;;;;;;;5021530;28;21036;-69
2023/05/27 02:21:41;;;;;;;9.63;6.32;;;;;;;;;;5037718;28;20405;-68
2023/05/27 02:24:07;;;;;;;10.02;5.32;;;;;;;;;;5020265;28;20046;-68
2023/05/27 02:26:32;;;;;;;14.27;6.50;;;;;;;;;;5022436;28;20046;-68
2023/05/27 02:29:01;;;;;;;11.27;6.07;;;;;;;;;;5037173;28;20570;-68
2023/05/27 02:31:26;;;;;;;11.73;6.35;;;;;;;;;;5037174;28;20041;-68
2023/05/27 02:33:52;;;;;;;15.02;6.03;;;;;;;;;;5020923;28;20041;-68
2023/05/27 02:36:17;;;;;;;10.50;5.63;;;;;;;;;;5021049;28;20119;-68
2023/05/27 02:38:44;;;;;;;13.43;6.15;;;;;;;;;;5037308;28;20049;-68
2023/05/27 02:41:09;;;;;;;9.43;5.80;;;;;;;;;;5036672;28;20050;-68
2023/05/27 02:43:35;;;;;;;9.60;5.43;;;;;;;;;;5021559;28;20434;-68
2023/05/27 02:46:00;;;;;;;10.95;5.82;;;;;;;;;;5020161;28;20061;-68
2023/05/27 02:48:26;;;;;;;13.55;6.05;;;;;;;;;;5036962;28;20049;-68
2023/05/27 02:50:53;;;;;;;10.63;5.93;;;;;;;;;;5036654;28;20091;-68
2023/05/27 02:53:18;;;;;;;9.95;5.10;;;;;;;;;;5020379;28;20041;-68
2023/05/27 02:55:43;;;;;;;11.82;6.13;;;;;;;;;;5019354;28;20115;-68
2023/05/27 02:58:09;;;;;;;11.95;5.78;;;;;;;;;;5019669;28;20042;-68
2023/05/27 03:00:34;;;;;;;7.60;5.57;;;;;;;;;;5034839;28;20045;-68
2023/05/27 03:03:00;;;;;;;9.68;5.25;;;;;;;;;;5036320;28;20060;-68
2023/05/27 03:05:25;;;;;;;10.90;5.97;;;;;;;;;;5021147;28;20047;-68
2023/05/27 03:07:51;;;;;;;11.40;5.95;;;;;;;;;;5035631;28;20051;-68
2023/05/27 03:10:16;;;;;;;15.25;6.45;;;;;;;;;;5020801;28;20053;-68
2023/05/27 03:12:42;;;;;;;11.80;5.78;;;;;;;;;;5019666;28;20055;-68
2023/05/27 03:15:07;;;;;;;11.05;5.82;;;;;;;;;;5021021;28;20041;-68
2023/05/27 03:17:37;;;;;;;14.00;7.18;;;;;;;;;;5018818;28;20041;-68
2023/05/27 03:20:03;;;;;;;9.25;5.90;;;;;;;;;;5035750;28;20478;-68
2023/05/27 03:22:31;;;;;;;11.85;5.97;;;;;;;;;;5019360;28;20049;-68
2023/05/27 03:24:57;;;;;;;10.35;6.32;;;;;;;;;;5020962;28;20055;-68
2023/05/27 03:27:22;;;;;;;13.23;6.20;;;;;;;;;;5035259;28;20056;-68
2023/05/27 03:29:48;;;;;;;13.60;6.45;;;;;;;;;;5034468;28;20045;-68
2023/05/27 03:32:13;;;;;;;12.00;6.40;;;;;;;;;;5018878;28;20037;-68
2023/05/27 03:34:41;;;;;;;12.43;5.95;;;;;;;;;;5019395;28;20052;-68
2023/05/27 03:37:06;;;;;;;15.45;6.50;;;;;;;;;;5035899;28;20411;-68
2023/05/27 03:39:50;;;;;;;9.27;5.95;;;;;;;;;;5015988;28;20053;-68
2023/05/27 03:42:17;;;;;;;11.13;6.15;;;;;;;;;;5032561;28;20045;-68
2023/05/27 03:44:43;;;;;;;10.98;6.05;;;;;;;;;;5032860;28;20422;-68
2023/05/27 03:47:08;;;;;;;12.32;5.95;;;;;;;;;;4986519;28;20046;-68
2023/05/27 03:49:33;;;;;;;11.63;5.70;;;;;;;;;;5035590;28;20084;-68
2023/05/27 03:51:59;;;;;;;12.63;5.95;;;;;;;;;;5033168;28;20136;-68
2023/05/27 03:54:29;;;;;;;13.05;5.47;;;;;;;;;;5017524;28;20594;-68
2023/05/27 03:56:54;;;;;;;11.82;5.70;;;;;;;;;;5020128;28;20148;-68
2023/05/27 03:59:20;;;;;;;10.45;5.82;;;;;;;;;;5018871;28;20049;-68
2023/05/27 04:01:48;;;;;;;11.00;5.90;;;;;;;;;;4990082;28;20056;-68
2023/05/27 04:04:14;;;;;;;9.52;6.50;;;;;;;;;;5019244;28;20041;-69
2023/05/27 04:06:41;;;;;;;12.40;6.13;;;;;;;;;;5021913;28;20047;-69
2023/05/27 04:09:07;;;;;;;11.32;6.20;;;;;;;;;;5034209;28;20455;-73
2023/05/27 04:11:32;;;;;;;8.23;5.72;;;;;;;;;;5017028;28;20532;-68
2023/05/27 04:13:58;;;;;;;13.63;6.32;;;;;;;;;;5015324;28;20057;-70
2023/05/27 04:16:24;;;;;;;10.95;5.60;;;;;;;;;;5012750;28;20057;-69
2023/05/27 04:18:51;;;;;;;14.95;5.85;;;;;;;;;;5016331;28;20042;-68
2023/05/27 04:21:19;;;;;;;11.95;5.78;;;;;;;;;;5019526;28;20410;-68
2023/05/27 04:23:45;;;;;;;14.82;5.90;;;;;;;;;;5010404;28;20107;-71
2023/05/27 04:26:12;;;;;;;9.85;5.78;;;;;;;;;;5034788;28;20041;-67
2023/05/27 04:28:40;;;;;;;12.18;5.45;;;;;;;;;;5033169;28;20474;-66
2023/05/27 04:31:12;;;;;;;13.55;5.82;;;;;;;;;;5019362;28;20139;-66
2023/05/27 04:33:42;;;;;;;12.63;5.70;;;;;;;;;;5014127;28;20045;-67
2023/05/27 04:36:09;;;;;;;10.15;6.20;;;;;;;;;;5034907;28;20072;-67
2023/05/27 04:38:50;;;;;;;11.90;5.93;;;;;;;;;;5018898;28;20073;-68
2023/05/27 04:41:16;;;;;;;8.40;5.82;;;;;;;;;;5016463;28;20148;-69
2023/05/27 04:44:02;;;;;;;10.93;6.00;;;;;;;;;;5025497;28;20046;-70
2023/05/27 04:46:33;;;;;;;10.77;5.57;;;;;;;;;;5018398;28;20165;-68
2023/05/27 04:49:00;;;;;;;15.80;6.68;;;;;;;;;;5016747;28;20148;-67
2023/05/27 04:51:26;;;;;;;14.25;6.35;;;;;;;;;;5035663;28;20087;-68
2023/05/27 04:53:54;;;;;;;8.93;5.60;;;;;;;;;;5017900;28;20443;-70
2023/05/27 04:56:22;;;;;;;10.65;5.80;;;;;;;;;;5030801;28;20041;-68
2023/05/27 04:58:49;;;;;;;11.63;5.45;;;;;;;;;;5035073;28;20568;-69
2023/05/27 05:01:17;;;;;;;9.80;5.65;;;;;;;;;;5016756;28;20458;-70
2023/05/27 05:03:52;;;;;;;9.38;5.93;;;;;;;;;;5014774;28;20498;-69
2023/05/27 05:06:22;;;;;;;9.18;5.00;;;;;;;;;;5009204;28;20147;-68
2023/05/27 05:08:49;;;;;;;9.40;5.68;;;;;;;;;;5032142;28;20045;-69
2023/05/27 05:11:15;;;;;;;7.90;4.85;;;;;;;;;;5030152;28;20040;-69
2023/05/27 05:13:41;;;;;;;8.25;5.25;;;;;;;;;;5033805;28;20041;-69
2023/05/27 05:16:07;;;;;;;7.53;4.60;;;;;;;;;;5012169;28;20179;-70
2023/05/27 05:18:32;;;;;;;10.57;4.80;;;;;;;;;;5032337;28;20783;-69
2023/05/27 05:20:58;;;;;;;6.70;4.65;;;;;;;;;;5031283;28;20053;-69
2023/05/27 05:23:32;;;;;;;12.50;5.38;;;;;;;;;;5015920;28;20128;-69
2023/05/27 05:26:05;;;;;;;11.65;5.22;;;;;;;;;;5016918;28;20128;-73
2023/05/27 05:28:34;;;;;;;7.85;4.43;;;;;;;;;;5028997;28;20048;-70
2023/05/27 05:31:00;;;;;;;9.02;4.65;;;;;;;;;;5029818;28;20651;-70
2023/05/27 05:33:25;;;;;;;10.73;4.82;;;;;;;;;;5009460;28;20056;-68
2023/05/27 05:35:51;;;;;;;9.18;4.82;;;;;;;;;;5011181;28;20050;-68
2023/05/27 05:38:23;;;;;;;12.10;5.10;;;;;;;;;;5025217;28;20060;-71
2023/05/27 05:40:51;;;;;;;11.35;4.57;;;;;;;;;;5024316;28;20390;-69
2023/05/27 05:43:18;;;;;;;8.65;4.43;;;;;;;;;;5005305;28;20049;-71
2023/05/27 05:45:43;;;;;;;8.10;5.10;;;;;;;;;;5029682;28;20179;-68
2023/05/27 05:48:09;;;;;;;12.23;4.97;;;;;;;;;;5014260;28;20755;-68
2023/05/27 05:50:38;;;;;;;11.77;4.65;;;;;;;;;;5012036;28;20124;-69
2023/05/27 05:53:03;;;;;;;9.15;4.30;;;;;;;;;;5010275;28;20137;-70
2023/05/27 05:55:30;;;;;;;9.52;4.20;;;;;;;;;;5031231;28;20081;-68
2023/05/27 05:57:56;;;;;;;10.35;4.32;;;;;;;;;;5033518;28;20046;-71
2023/05/27 06:00:23;;;;;;;14.27;4.05;;;;;;;;;;5015657;28;20038;-72
2023/05/27 06:02:53;;;;;;;14.90;4.63;;;;;;;;;;5030211;28;20111;-70
2023/05/27 06:05:38;;;;;;;10.60;4.25;;;;;;;;;;5007841;28;20049;-70
2023/05/27 06:08:04;;;;;;;9.10;4.10;;;;;;;;;;5030116;28;20045;-71
2023/05/27 06:10:31;;;;;;;7.05;3.72;;;;;;;;;;5015582;28;20140;-68
2023/05/27 06:12:56;;;;;;;7.22;4.13;;;;;;;;;;5015329;28;20129;-71
2023/05/27 06:15:22;;;;;;;13.00;3.88;;;;;;;;;;5029126;28;20063;-71
2023/05/27 06:17:47;;;;;;;8.30;3.75;;;;;;;;;;5033811;28;20037;-68
2023/05/27 06:20:13;;;;;;;9.70;4.63;;;;;;;;;;5015948;28;20510;-70
2023/05/27 06:22:38;;;;;;;10.32;4.10;;;;;;;;;;5018140;28;20045;-70
2023/05/27 06:25:28;;;;;;;5.45;3.33;;;;;;;;;;5033061;28;20498;-70
2023/05/27 06:27:57;;;;;;;8.88;3.97;;;;;;;;;;5031705;28;20413;-69
2023/05/27 06:30:23;;;;;;;8.52;3.85;;;;;;;;;;5017202;28;20494;-70
2023/05/27 06:32:49;;;;;;;12.57;3.88;;;;;;;;;;5033918;28;20041;-70
2023/05/27 06:35:16;;;;;;;12.43;4.32;;;;;;;;;;5016211;28;21082;-69
2023/05/27 06:37:41;;;;;;;16.83;4.10;;;;;;;;;;5017177;28;20049;-68
2023/05/27 06:40:08;;;;;;;8.85;3.72;;;;;;;;;;5031451;28;20077;-69
2023/05/27 06:42:33;;;;;;;14.45;4.57;;;;;;;;;;5033944;28;20054;-68
2023/05/27 06:45:17;;;;;;;7.00;3.63;;;;;;;;;;5013058;28;20087;-68
2023/05/27 06:47:44;;;;;;;13.15;3.80;;;;;;;;;;5034195;28;20410;-71
2023/05/27 06:50:10;;;;;;;10.88;3.88;;;;;;;;;;5033670;28;20052;-68
2023/05/27 06:52:36;;;;;;;7.68;4.15;;;;;;;;;;5018243;28;21140;-72
2023/05/27 06:55:13;;;;;;;10.32;4.05;;;;;;;;;;5034913;28;20053;-72
2023/05/27 06:58:06;;;;;;;8.90;3.92;;;;;;;;;;5015475;28;20037;-70
2023/05/27 07:00:49;;;;;;;7.00;3.90;;;;;;;;;;5033288;28;20443;-70
2023/05/27 07:03:37;;;;;;;8.77;3.70;;;;;;;;;;5013820;28;20394;-69
2023/05/27 07:06:05;;;;;;;12.95;3.40;;;;;;;;;;5027226;28;20052;-70
2023/05/27 07:08:37;;;;;;;8.90;4.05;;;;;;;;;;5001503;28;20053;-71
2023/05/27 07:11:13;;;;;;;9.65;3.80;;;;;;;;;;5030878;28;20069;-69
2023/05/27 07:13:39;;;;;;;10.63;4.22;;;;;;;;;;5032616;28;20235;-69
2023/05/27 07:16:05;;;;;;;12.88;4.00;;;;;;;;;;5032225;28;20050;-72
2023/05/27 07:18:31;;;;;;;10.23;3.92;;;;;;;;;;5031477;28;20792;-71
2023/05/27 07:20:59;;;;;;;10.13;4.20;;;;;;;;;;5031116;28;20064;-70
2023/05/27 07:23:25;;;;;;;11.52;3.83;;;;;;;;;;5014586;28;20506;-69
2023/05/27 07:26:01;;;;;;;7.45;4.22;;;;;;;;;;5008571;28;20056;-69
2023/05/27 07:28:27;;;;;;;9.48;4.10;;;;;;;;;;5015945;28;20042;-69
2023/05/27 07:31:03;;;;;;;10.40;4.18;;;;;;;;;;5026974;28;20061;-69
2023/05/27 07:33:34;;;;;;;8.68;4.25;;;;;;;;;;5027647;28;20520;-70
2023/05/27 07:36:00;;;;;;;10.75;4.03;;;;;;;;;;4986931;28;20127;-70
2023/05/27 07:38:25;;;;;;;9.43;4.13;;;;;;;;;;5007273;28;20050;-69
2023/05/27 07:40:51;;;;;;;13.25;4.35;;;;;;;;;;5015450;28;20846;-69
2023/05/27 07:43:16;;;;;;;9.85;4.00;;;;;;;;;;5016503;28;20149;-69
2023/05/27 07:45:42;;;;;;;9.38;3.85;;;;;;;;;;5029343;28;20037;-69
2023/05/27 07:48:08;;;;;;;12.23;3.75;;;;;;;;;;5020877;28;20053;-68
2023/05/27 07:50:33;;;;;;;12.52;4.30;;;;;;;;;;5007738;28;20049;-69
2023/05/27 07:53:03;;;;;;;9.00;3.72;;;;;;;;;;5028083;28;20419;-68
2023/05/27 07:55:29;;;;;;;9.90;4.15;;;;;;;;;;5012971;28;20094;-68
2023/05/27 07:57:55;;;;;;;9.32;4.10;;;;;;;;;;5032068;28;21001;-67
2023/05/27 08:00:23;;;;;;;10.23;4.07;;;;;;;;;;5015646;28;20124;-70
2023/05/27 08:02:52;;;;;;;10.35;4.30;;;;;;;;;;5012245;28;20049;-69
2023/05/27 09:08:24;;;;;;;10.50;4.68;;;;;;;;;;5021189;22;20444;-74
2023/05/27 09:10:49;;;;;;;9.25;4.60;;;;;;;;;;5016184;28;20505;-74
2023/05/27 09:13:29;;;;;;;7.40;4.45;;;;;;;;;;5012732;28;20057;-74
2023/05/27 09:16:02;;;;;;;9.63;4.82;;;;;;;;;;5015519;28;20053;-74
2023/05/27 09:18:32;;;;;;;12.38;4.53;;;;;;;;;;4997822;28;20057;-73
2023/05/27 09:20:58;;;;;;;12.45;4.70;;;;;;;;;;4996985;28;21207;-74
2023/05/27 09:23:25;;;;;;;16.00;4.78;;;;;;;;;;4997249;28;20166;-73
2023/05/27 09:25:51;;;;;;;8.25;4.20;;;;;;;;;;4997757;28;20053;-73
2023/05/27 09:28:24;;;;;;;13.38;4.75;;;;;;;;;;4992082;28;20075;-73
2023/05/27 09:31:09;;;;;;;9.20;4.40;;;;;;;;;;4988848;28;20077;-74
2023/05/27 09:33:38;;;;;;;9.23;4.72;;;;;;;;;;4990022;28;20057;-75
2023/05/27 09:36:05;;;;;;;8.13;4.30;;;;;;;;;;4992621;28;20049;-75
2023/05/27 09:38:32;;;;;;;12.00;4.93;;;;;;;;;;4987288;28;20050;-76
2023/05/27 09:40:58;;;;;;;8.63;4.53;;;;;;;;;;4996862;28;20086;-73
2023/05/27 09:43:27;;;;;;;10.20;4.70;;;;;;;;;;4995965;28;20120;-75
2023/05/27 09:46:10;;;;;;;9.88;4.70;;;;;;;;;;4997943;28;20053;-76
2023/05/27 09:48:36;;;;;;;11.00;4.50;;;;;;;;;;4994958;28;20058;-74
2023/05/27 09:51:03;;;;;;;8.95;4.45;;;;;;;;;;4993660;28;20397;-74
2023/05/27 09:53:30;;;;;;;11.50;5.07;;;;;;;;;;5004888;28;20084;-76
2023/05/27 09:55:57;;;;;;;11.75;4.47;;;;;;;;;;4994556;28;20096;-74
2023/05/27 09:58:23;;;;;;;10.82;5.30;;;;;;;;;;4998155;28;20896;-74
2023/05/27 10:00:50;;;;;;;10.32;4.93;;;;;;;;;;4998523;28;20046;-74
2023/05/27 10:03:21;;;;;;;11.18;4.68;;;;;;;;;;4998057;28;20053;-75
2023/05/27 10:05:49;;;;;;;7.90;4.60;;;;;;;;;;5000238;28;20426;-73
2023/05/27 10:08:14;;;;;;;7.43;4.30;;;;;;;;;;4999408;28;20280;-74
2023/05/27 10:10:40;;;;;;;9.10;5.00;;;;;;;;;;4984771;28;20046;-74
2023/05/27 10:13:06;;;;;;;11.63;5.40;;;;;;;;;;5002775;28;20046;-74
2023/05/27 10:15:32;;;;;;;9.13;4.97;;;;;;;;;;5001808;28;20037;-75
2023/05/27 10:18:09;;;;;;;9.82;5.03;;;;;;;;;;4986064;28;20785;-75
2023/05/27 10:20:37;;;;;;;13.63;4.93;;;;;;;;;;4984034;28;20038;-74
2023/05/27 10:23:15;;;;;;;14.23;5.05;;;;;;;;;;5002966;28;20466;-74
2023/05/27 10:25:47;;;;;;;13.25;5.00;;;;;;;;;;4983331;28;20137;-77
2023/05/27 10:28:24;;;;;;;10.98;5.18;;;;;;;;;;5001863;28;20073;-75
2023/05/27 10:30:49;;;;;;;14.25;4.88;;;;;;;;;;5001629;28;20057;-75
2023/05/27 10:33:15;;;;;;;11.32;4.55;;;;;;;;;;5001590;28;20046;-76
2023/05/27 10:35:45;;;;;;;8.73;4.13;;;;;;;;;;5001380;28;20054;-75
2023/05/27 10:38:17;;;;;;;12.98;4.60;;;;;;;;;;5000397;28;20731;-74
2023/05/27 10:40:45;;;;;;;13.35;6.90;;;;;;;;;;4984033;28;20045;-75
2023/05/27 10:43:18;;;;;;;8.68;4.95;;;;;;;;;;4985006;28;20575;-76
2023/05/27 10:45:44;;;;;;;7.72;4.72;;;;;;;;;;4984986;28;20121;-74
2023/05/27 10:48:19;;;;;;;14.60;6.60;;;;;;;;;;4999336;28;20112;-74
2023/05/27 10:50:57;;;;;;;9.75;4.80;;;;;;;;;;4977737;28;20060;-77
2023/05/27 10:53:22;;;;;;;7.05;3.70;;;;;;;;;;4953236;28;20058;-75
2023/05/27 10:55:50;;;;;;;11.23;4.47;;;;;;;;;;5002026;28;20052;-75
2023/05/27 10:58:16;;;;;;;9.02;4.20;;;;;;;;;;4983406;28;20077;-75
2023/05/27 11:00:43;;;;;;;9.32;6.22;;;;;;;;;;4984214;28;20130;-76
2023/05/27 11:03:25;;;;;;;7.75;4.32;;;;;;;;;;4985056;28;20048;-74
2023/05/27 11:06:07;;;;;;;8.82;3.88;;;;;;;;;;4983953;28;20046;-75
2023/05/27 11:08:34;;;;;;;8.90;3.97;;;;;;;;;;4982205;28;20046;-75
2023/05/27 11:11:07;;;;;;;7.18;3.45;;;;;;;;;;5000335;28;20049;-75
2023/05/27 11:13:39;;;;;;;7.03;3.78;;;;;;;;;;4971455;28;20057;-75
2023/05/27 11:16:06;;;;;;;11.43;3.72;;;;;;;;;;4997624;28;20042;-75
2023/05/27 11:18:39;;;;;;;8.68;3.70;;;;;;;;;;4984535;28;20084;-75
2023/05/27 11:21:09;;;;;;;8.73;3.58;;;;;;;;;;5001362;28;20046;-76
2023/05/27 11:23:35;;;;;;;6.35;3.80;;;;;;;;;;4985695;28;20929;-73
2023/05/27 11:26:04;;;;;;;9.40;4.13;;;;;;;;;;5001932;28;20053;-75
2023/05/27 11:28:29;;;;;;;12.50;3.40;;;;;;;;;;4995137;28;20088;-74
2023/05/27 11:31:01;;;;;;;6.72;3.60;;;;;;;;;;5001734;28;20057;-75
2023/05/27 11:33:33;;;;;;;7.63;3.50;;;;;;;;;;4983604;28;20132;-74
2023/05/27 11:36:06;;;;;;;10.02;3.90;;;;;;;;;;4976776;28;20042;-74
2023/05/27 11:38:48;;;;;;;9.15;3.88;;;;;;;;;;4982884;28;20494;-74
2023/05/27 11:41:14;;;;;;;11.38;3.83;;;;;;;;;;4995279;28;20046;-74
2023/05/27 11:43:54;;;;;;;8.10;3.58;;;;;;;;;;4990314;28;20109;-74
2023/05/27 11:46:21;;;;;;;8.45;3.70;;;;;;;;;;4997365;28;20513;-74
2023/05/27 11:48:46;;;;;;;11.27;3.92;;;;;;;;;;4984165;28;20042;-74
2023/05/27 11:51:12;;;;;;;9.52;3.80;;;;;;;;;;5001846;28;20072;-74
2023/05/27 11:53:58;;;;;;;8.75;3.80;;;;;;;;;;4999856;28;20061;-75
2023/05/27 11:56:24;;;;;;;8.65;3.60;;;;;;;;;;4999571;28;20410;-75
2023/05/27 11:58:50;;;;;;;10.27;4.00;;;;;;;;;;4982141;28;20084;-75
2023/05/27 12:01:15;;;;;;;7.13;3.60;;;;;;;;;;4995680;28;20074;-75
2023/05/27 12:03:41;;;;;;;10.63;3.75;;;;;;;;;;4983260;28;20604;-74
2023/05/27 12:06:06;;;;;;;8.68;3.72;;;;;;;;;;4999568;28;20045;-75
2023/05/27 12:08:32;;;;;;;9.32;4.05;;;;;;;;;;4983525;28;20054;-75
2023/05/27 12:10:57;;;;;;;14.45;3.80;;;;;;;;;;5001288;28;20046;-75
2023/05/27 12:13:23;;;;;;;7.45;3.45;;;;;;;;;;4955828;28;20104;-74
2023/05/27 12:15:49;;;;;;;7.90;3.60;;;;;;;;;;4998260;28;20046;-73
2023/05/27 12:18:14;;;;;;;8.50;3.80;;;;;;;;;;4976867;28;20065;-74
2023/05/27 12:20:40;;;;;;;7.57;3.83;;;;;;;;;;5000782;28;20538;-74
2023/05/27 12:23:05;;;;;;;12.13;3.80;;;;;;;;;;5000609;28;20061;-74
2023/05/27 12:25:31;;;;;;;13.20;3.80;;;;;;;;;;5001003;28;20124;-73
2023/05/27 12:27:57;;;;;;;8.88;3.83;;;;;;;;;;4997633;28;20045;-74
2023/05/27 12:30:22;;;;;;;9.90;4.10;;;;;;;;;;4998747;28;20163;-74
2023/05/27 12:32:48;;;;;;;9.45;3.70;;;;;;;;;;5000910;28;20540;-74
2023/05/27 12:35:13;;;;;;;11.07;3.70;;;;;;;;;;5000453;28;20112;-74
2023/05/27 12:37:39;;;;;;;5.75;3.13;;;;;;;;;;4999922;28;20057;-73
2023/05/27 12:40:05;;;;;;;7.32;3.90;;;;;;;;;;4974354;28;20088;-74
2023/05/27 12:42:32;;;;;;;13.57;4.03;;;;;;;;;;5001094;28;20061;-74
2023/05/27 12:44:58;;;;;;;8.80;3.15;;;;;;;;;;5000519;28;20089;-76
2023/05/27 12:47:23;;;;;;;8.35;3.45;;;;;;;;;;4998352;28;20074;-77
2023/05/27 12:49:48;;;;;;;8.15;3.63;;;;;;;;;;4989431;28;20491;-76
2023/05/27 12:52:14;;;;;;;8.32;3.38;;;;;;;;;;4995245;28;20058;-76
2023/05/27 12:54:39;;;;;;;8.40;3.28;;;;;;;;;;4996323;28;20676;-75
2023/05/27 12:57:05;;;;;;;11.13;3.60;;;;;;;;;;5000807;28;20045;-74
2023/05/27 12:59:32;;;;;;;11.48;3.78;;;;;;;;;;4999979;28;20041;-74
2023/05/27 13:01:58;;;;;;;9.98;3.92;;;;;;;;;;4982524;28;20489;-74
2023/05/27 13:04:23;;;;;;;6.60;2.97;;;;;;;;;;4981537;28;20053;-74
2023/05/27 13:06:48;;;;;;;7.72;3.17;;;;;;;;;;4999775;28;20049;-74
2023/05/27 13:09:14;;;;;;;6.35;3.17;;;;;;;;;;4966869;28;20141;-73
2023/05/27 13:11:39;;;;;;;11.32;3.90;;;;;;;;;;4981924;28;20056;-74
2023/05/27 13:14:05;;;;;;;8.23;3.45;;;;;;;;;;4965584;28;20096;-74
2023/05/27 13:16:31;;;;;;;10.35;3.63;;;;;;;;;;4982343;28;20064;-73
2023/05/27 13:18:56;;;;;;;8.73;3.50;;;;;;;;;;5000388;28;20041;-73
2023/05/27 13:21:22;;;;;;;8.50;3.22;;;;;;;;;;4999450;28;20490;-73
2023/05/27 13:23:47;;;;;;;7.75;3.60;;;;;;;;;;5000548;28;20050;-74
2023/05/27 13:26:13;;;;;;;8.38;3.40;;;;;;;;;;5003303;28;20056;-74
2023/05/27 13:28:38;;;;;;;7.72;3.75;;;;;;;;;;5003907;28;20046;-73
2023/05/27 13:31:04;;;;;;;6.50;3.53;;;;;;;;;;5000564;28;20078;-73
2023/05/27 13:33:30;;;;;;;8.20;3.78;;;;;;;;;;4999857;28;20525;-73
2023/05/27 13:35:56;;;;;;;8.25;3.25;;;;;;;;;;5003841;28;20050;-73
2023/05/27 13:38:21;;;;;;;7.55;3.50;;;;;;;;;;5002994;28;20050;-74
2023/05/27 13:40:47;;;;;;;8.00;3.30;;;;;;;;;;4986891;28;20049;-74
2023/05/27 13:43:12;;;;;;;6.38;3.58;;;;;;;;;;5003124;28;20779;-74
2023/05/27 13:45:38;;;;;;;6.55;3.22;;;;;;;;;;5003375;28;20100;-75
2023/05/27 13:48:03;;;;;;;10.77;3.47;;;;;;;;;;5001795;28;20677;-74
2023/05/27 13:50:31;;;;;;;4.90;2.92;;;;;;;;;;5002098;28;20056;-72
2023/05/27 13:52:56;;;;;;;6.95;2.83;;;;;;;;;;5002917;28;20100;-72
2023/05/27 13:55:22;;;;;;;12.23;3.40;;;;;;;;;;5000040;28;20041;-72
2023/05/27 13:57:47;;;;;;;8.15;3.20;;;;;;;;;;5003420;28;20462;-72
2023/05/27 14:00:13;;;;;;;7.55;3.67;;;;;;;;;;5003252;28;20080;-72
2023/05/27 14:02:38;;;;;;;5.57;3.33;;;;;;;;;;5000538;28;20499;-72
2023/05/27 14:05:04;;;;;;;7.30;3.63;;;;;;;;;;4985368;28;20046;-73
2023/05/27 14:07:30;;;;;;;6.20;3.30;;;;;;;;;;4999059;28;20049;-73
2023/05/27 14:09:55;;;;;;;8.82;3.35;;;;;;;;;;5002617;28;21463;-74
2023/05/27 14:12:20;;;;;;;8.20;3.40;;;;;;;;;;5003062;28;20100;-73
2023/05/27 14:14:46;;;;;;;7.93;3.53;;;;;;;;;;4999688;28;20487;-76
2023/05/27 14:17:11;;;;;;;11.30;3.28;;;;;;;;;;4984657;28;20092;-74
2023/05/27 14:19:37;;;;;;;6.85;3.53;;;;;;;;;;4985481;28;20475;-76
2023/05/27 14:22:03;;;;;;;7.97;3.20;;;;;;;;;;4985253;28;20052;-75
2023/05/27 14:24:28;;;;;;;6.85;3.10;;;;;;;;;;4998290;28;20052;-74
2023/05/27 14:26:54;;;;;;;8.07;3.15;;;;;;;;;;4985287;28;20050;-73
2023/05/27 14:29:19;;;;;;;7.63;3.15;;;;;;;;;;4970827;28;20054;-74
2023/05/27 14:31:45;;;;;;;8.57;3.25;;;;;;;;;;5002747;28;20534;-75
2023/05/27 14:34:10;;;;;;;5.80;3.20;;;;;;;;;;4994377;28;20045;-74
2023/05/27 14:36:36;;;;;;;6.10;2.75;;;;;;;;;;4999205;28;20235;-75
2023/05/27 14:39:05;;;;;;;9.07;3.72;;;;;;;;;;5002032;28;20143;-75
2023/05/27 14:41:31;;;;;;;5.88;3.03;;;;;;;;;;5002828;28;20085;-74
2023/05/27 14:43:56;;;;;;;7.90;3.30;;;;;;;;;;4985150;28;20100;-74
2023/05/27 14:46:21;;;;;;;6.05;3.35;;;;;;;;;;5001822;28;20038;-74
2023/05/27 14:48:47;;;;;;;6.53;3.00;;;;;;;;;;5002790;28;20050;-75
2023/05/27 14:51:12;;;;;;;5.63;3.00;;;;;;;;;;4999074;28;20046;-75
2023/05/27 14:53:38;;;;;;;6.22;3.15;;;;;;;;;;5001853;28;20038;-74
2023/05/27 14:56:03;;;;;;;8.52;3.67;;;;;;;;;;4975728;28;20750;-74
2023/05/27 14:58:29;;;;;;;11.23;3.67;;;;;;;;;;5000829;28;20049;-73
2023/05/27 15:00:55;;;;;;;14.57;4.25;;;;;;;;;;4996920;28;20058;-73
2023/05/27 15:03:20;;;;;;;5.00;2.42;;;;;;;;;;4997168;28;20050;-75
2023/05/27 15:05:46;;;;;;;6.72;2.83;;;;;;;;;;4998717;28;20048;-73
2023/05/27 15:08:15;;;;;;;6.97;3.10;;;;;;;;;;4997808;28;20555;-73
2023/05/27 15:10:41;;;;;;;8.18;3.38;;;;;;;;;;4993927;28;20567;-73
2023/05/27 15:13:07;;;;;;;9.65;2.88;;;;;;;;;;4993340;28;20512;-72
2023/05/27 15:15:32;;;;;;;3.92;2.55;;;;;;;;;;4995885;28;20046;-75
2023/05/27 15:17:57;;;;;;;7.22;4.00;;;;;;;;;;4998709;28;20139;-73
2023/05/27 15:20:23;;;;;;;5.38;3.20;;;;;;;;;;5000018;28;20132;-73
2023/05/27 15:22:48;;;;;;;9.23;3.50;;;;;;;;;;4992800;28;20058;-72
2023/05/27 15:25:14;;;;;;;6.60;2.85;;;;;;;;;;4979443;28;20042;-75
2023/05/27 15:27:40;;;;;;;7.90;2.90;;;;;;;;;;5000963;28;20049;-74
2023/05/27 15:30:07;;;;;;;7.80;3.10;;;;;;;;;;5000600;28;20046;-75
2023/05/27 15:32:32;;;;;;;5.68;2.42;;;;;;;;;;4999550;28;20105;-74
2023/05/27 15:34:58;;;;;;;9.90;2.78;;;;;;;;;;4981959;28;20057;-72
2023/05/27 15:37:24;;;;;;;11.45;3.40;;;;;;;;;;4997381;28;20141;-72
2023/05/27 15:39:50;;;;;;;4.82;2.65;;;;;;;;;;4999046;28;20140;-74
2023/05/27 15:42:16;;;;;;;6.40;3.03;;;;;;;;;;5000245;28;20046;-72